WetterOnline ( https://www.wetteronline.de )

Wetter aktuell Karlsruhe

Aktuelles Wetter: Rheinstetten (116m)

6-stündlich | Neueste Meldungen
Ortszeit Temperatur Wetter
Fr, 12.04. 14:00 20.0° C leicht bewölkt
Fr, 12.04. 8:00 6.3° C leicht bewölkt
Fr, 12.04. 2:00 6.9° C wolkig
Do, 11.04. 20:00 15.8° C bewölkt
Do, 11.04. 14:00 17.1° C leicht bewölkt
Do, 11.04. 8:00 3.6° C wolkenlos
Do, 11.04. 2:00 3.7° C wolkenlos
Mi, 10.04. 20:00 13.6° C wolkenlos
Ortszeit Temperatur Wetter
Fr, 12.04. 17:00 21.8° C leicht bewölkt
Fr, 12.04. 16:40 21.9° C bedeckt
Fr, 12.04. 16:30 22.3° C wolkig
Fr, 12.04. 16:20 22.3° C wolkig
Fr, 12.04. 16:10 21.6° C bedeckt
Fr, 12.04. 16:00 21.6° C leicht bewölkt
Fr, 12.04. 15:50 21.6° C wolkig
Fr, 12.04. 15:30 21.3° C leicht bewölkt
Fr, 12.04. 15:00 20.9° C leicht bewölkt
Fr, 12.04. 14:30 20.1° C leicht bewölkt
Fr, 12.04. 14:00 20.0° C leicht bewölkt
Ortszeit Relative Feuchte Sichtweite
Fr, 12.04. 14:00 38% >70 km
Fr, 12.04. 8:00 89% 40 km
Fr, 12.04. 2:00 91% 45 km
Do, 11.04. 20:00 45% 50 km
Do, 11.04. 14:00 33% 50 km
Do, 11.04. 8:00 87% 30 km
Do, 11.04. 2:00 97% 35 km
Mi, 10.04. 20:00 52% 55 km
Ortszeit Relative Feuchte Sichtweite
Fr, 12.04. 17:00 39% >70 km
Fr, 12.04. 16:40 39% -
Fr, 12.04. 16:30 41% >70 km
Fr, 12.04. 16:20 41% -
Fr, 12.04. 16:10 40% -
Fr, 12.04. 16:00 40% 65 km
Fr, 12.04. 15:50 40% -
Fr, 12.04. 15:30 40% 45 km
Fr, 12.04. 15:00 36% >70 km
Fr, 12.04. 14:30 35% 35 km
Fr, 12.04. 14:00 38% >70 km
Ortszeit Niederschlagsmenge Niederschlagsart
Fr, 12.04. 14:00 0.1 l/m2 in 6 Std. Sprühregen
Fr, 12.04. 8:00 0.0 l/m2 in 12 Std. -
Fr, 12.04. 2:00 0.0 l/m2 in 6 Std. -
Do, 11.04. 20:00 0.0 l/m2 in 12 Std. -
Do, 11.04. 14:00 0.0 l/m2 in 6 Std. -
Do, 11.04. 8:00 0.0 l/m2 in 12 Std. -
Do, 11.04. 2:00 0.0 l/m2 in 6 Std. -
Mi, 10.04. 20:00 0.0 l/m2 in 12 Std. -
Ortszeit Niederschlagsmenge Niederschlagsart
Fr, 12.04. 17:00 0.0 l/m2 in 1 Std. -
Fr, 12.04. 16:40 keine Meldung -
Fr, 12.04. 16:30 0.0 l/m2 in 30 Min -
Fr, 12.04. 16:20 keine Meldung -
Fr, 12.04. 16:10 keine Meldung -
Fr, 12.04. 16:00 0.0 l/m2 in 1 Std. -
Fr, 12.04. 15:50 keine Meldung -
Fr, 12.04. 15:30 0.0 l/m2 in 30 Min -
Fr, 12.04. 15:00 0.0 l/m2 in 1 Std. -
Fr, 12.04. 14:30 0.0 l/m2 in 30 Min -
Fr, 12.04. 14:00 0.0 l/m2 in 1 Std. Sprühregen
Ortszeit Stärke Spitze Richtung
km/h Bft. km/h Grad Sektor
Fr, 12.04. 14:00 7 2 18 240° SW
Fr, 12.04. 8:00 0 0 7 - -
Fr, 12.04. 2:00 4 1 7 260° W
Do, 11.04. 20:00 4 1 14 290° W
Do, 11.04. 14:00 7 2 14 10° N
Do, 11.04. 8:00 2 1 7 140° SO
Do, 11.04. 2:00 2 1 9 190° S
Mi, 10.04. 20:00 0 0 22 - -
Ortszeit Stärke Spitze Richtung
km/h Bft. km/h Grad Sektor
Fr, 12.04. 17:00 11 2 14 200° S
Fr, 12.04. 16:40 7 2 - 200° S
Fr, 12.04. 16:30 9 2 15 220° SW
Fr, 12.04. 16:20 9 2 - 220° SW
Fr, 12.04. 16:10 11 2 - 210° SW
Fr, 12.04. 16:00 9 2 17 220° SW
Fr, 12.04. 15:50 9 2 - 220° SW
Fr, 12.04. 15:30 7 2 18 220° SW
Fr, 12.04. 15:00 7 2 18 220° SW
Fr, 12.04. 14:30 7 2 18 280° W
Fr, 12.04. 14:00 7 2 18 240° SW
Ortszeit Untergrenze Bedeckung Gattung
total tief tief mittel hoch
Fr, 12.04. 14:00 7800 m 4/8 0/8 - - -
Fr, 12.04. 8:00 6300 m 3/8 2/8 - - -
Fr, 12.04. 2:00 9000 m 8/8 0/8 - - -
Do, 11.04. 20:00 6900 m 7/8 7/8 - - -
Do, 11.04. 14:00 9000 m 7/8 0/8 - - -
Do, 11.04. 8:00 - 0/8 0/8 - - -
Do, 11.04. 2:00 - 0/8 0/8 - - -
Mi, 10.04. 20:00 - 0/8 0/8 - - -
Ortszeit Bedeckungsgrad in Achtel und Wolkenuntergrenze
Fr, 12.04. 17:00 8(10500m)
Fr, 12.04. 16:40 8
Fr, 12.04. 16:30 8(10500m) 8(10500m)
Fr, 12.04. 16:20 8(10500m) 8(10500m)
Fr, 12.04. 16:10 8
Fr, 12.04. 16:00 8(9000m)
Fr, 12.04. 15:50 8(9000m)
Fr, 12.04. 15:30 2(7800m) 3(9000m) 5(9000m)
Fr, 12.04. 15:00 1(8100m) 3(8700m)
Fr, 12.04. 14:30 1(9000m) 5(10500m)
Fr, 12.04. 14:00 4(7800m)
Ortszeit Luftdruck NN (hPa) Tendenz (hPa in 3 Std.)
Fr, 12.04. 14:00 1033 - 1,2
Fr, 12.04. 8:00 1035 + 0,3
Fr, 12.04. 2:00 1034 + 0,1
Do, 11.04. 20:00 1033 + 0,1
Do, 11.04. 14:00 1034 - 0,6
Do, 11.04. 8:00 1035 + 1,4
Do, 11.04. 2:00 1033 + 0,2
Mi, 10.04. 20:00 1031 + 0,5
Ortszeit Luftdruck NN (hPa) Tendenz (hPa in 3 Std.)
Fr, 12.04. 17:00 1031 - 2,0
Fr, 12.04. 16:40 1031 keine Meldung
Fr, 12.04. 16:30 1031 - 2,0
Fr, 12.04. 16:20 1031 keine Meldung
Fr, 12.04. 16:10 1031 keine Meldung
Fr, 12.04. 16:00 1031 - 1,9
Fr, 12.04. 15:50 1031 keine Meldung
Fr, 12.04. 15:30 1032 - 1,8
Fr, 12.04. 15:00 1032 - 1,4
Fr, 12.04. 14:30 1033 - 1,4
Fr, 12.04. 14:00 1033 - 1,2
Ortszeit Schneehöhe (cm)
Fr, 12.04. 14:00 0
Fr, 12.04. 8:00 0
Fr, 12.04. 2:00 0
Do, 11.04. 20:00 0
Do, 11.04. 14:00 0
Do, 11.04. 8:00 0
Do, 11.04. 2:00 0
Mi, 10.04. 20:00 0
Ortszeit Schneehöhe (cm)
Fr, 12.04. 17:00 0
Fr, 12.04. 16:40 -
Fr, 12.04. 16:30 0
Fr, 12.04. 16:20 0
Fr, 12.04. 16:10 -
Fr, 12.04. 16:00 0
Fr, 12.04. 15:50 0
Fr, 12.04. 15:30 0
Fr, 12.04. 15:00 0
Fr, 12.04. 14:30 0
Fr, 12.04. 14:00 0
Link zu dieser Seite / Seite empfehlen

Das Wetter in ...